sensor_id;sensor_type;location;lat;lon;timestamp;temperature;humidity
57709;SHT35;42558;52.388;13.390;2023-06-10T00:01:32;16.25;76.56
57709;SHT35;42558;52.388;13.390;2023-06-10T00:04:04;16.25;76.50
57709;SHT35;42558;52.388;13.390;2023-06-10T00:06:32;16.21;76.59
57709;SHT35;42558;52.388;13.390;2023-06-10T00:09:04;16.19;76.61
57709;SHT35;42558;52.388;13.390;2023-06-10T00:11:34;16.18;76.68
57709;SHT35;42558;52.388;13.390;2023-06-10T00:14:05;16.16;76.74
57709;SHT35;42558;52.388;13.390;2023-06-10T00:16:35;16.15;76.82
57709;SHT35;42558;52.388;13.390;2023-06-10T00:19:06;16.06;77.10
57709;SHT35;42558;52.388;13.390;2023-06-10T00:21:36;16.03;77.19
57709;SHT35;42558;52.388;13.390;2023-06-10T00:24:08;16.04;77.13
57709;SHT35;42558;52.388;13.390;2023-06-10T00:26:40;16.04;77.13
57709;SHT35;42558;52.388;13.390;2023-06-10T00:29:10;16.02;77.16
57709;SHT35;42558;52.388;13.390;2023-06-10T00:31:40;16.00;77.25
57709;SHT35;42558;52.388;13.390;2023-06-10T00:34:11;15.98;77.30
57709;SHT35;42558;52.388;13.390;2023-06-10T00:36:41;15.95;77.38
57709;SHT35;42558;52.388;13.390;2023-06-10T00:39:11;15.89;77.60
57709;SHT35;42558;52.388;13.390;2023-06-10T00:41:41;15.87;77.84
57709;SHT35;42558;52.388;13.390;2023-06-10T00:44:11;15.85;77.93
57709;SHT35;42558;52.388;13.390;2023-06-10T00:46:42;15.83;78.00
57709;SHT35;42558;52.388;13.390;2023-06-10T00:49:12;15.82;78.09
57709;SHT35;42558;52.388;13.390;2023-06-10T00:51:42;15.79;78.09
57709;SHT35;42558;52.388;13.390;2023-06-10T00:54:12;15.75;78.18
57709;SHT35;42558;52.388;13.390;2023-06-10T00:56:42;15.76;78.17
57709;SHT35;42558;52.388;13.390;2023-06-10T00:59:13;15.74;78.18
57709;SHT35;42558;52.388;13.390;2023-06-10T01:01:45;15.74;78.19
57709;SHT35;42558;52.388;13.390;2023-06-10T01:04:16;15.72;78.38
57709;SHT35;42558;52.388;13.390;2023-06-10T01:10:11;15.68;78.24
57709;SHT35;42558;52.388;13.390;2023-06-10T01:12:55;15.67;78.37
57709;SHT35;42558;52.388;13.390;2023-06-10T01:15:37;15.66;78.56
57709;SHT35;42558;52.388;13.390;2023-06-10T01:18:09;15.64;78.57
57709;SHT35;42558;52.388;13.390;2023-06-10T01:20:43;15.58;78.79
57709;SHT35;42558;52.388;13.390;2023-06-10T01:23:16;15.58;78.73
57709;SHT35;42558;52.388;13.390;2023-06-10T01:25:47;15.57;78.70
57709;SHT35;42558;52.388;13.390;2023-06-10T01:28:27;15.52;78.85
57709;SHT35;42558;52.388;13.390;2023-06-10T01:34:18;15.42;79.45
57709;SHT35;42558;52.388;13.390;2023-06-10T01:36:51;15.40;79.67
57709;SHT35;42558;52.388;13.390;2023-06-10T01:39:25;15.39;79.61
57709;SHT35;42558;52.388;13.390;2023-06-10T01:41:57;15.37;79.68
57709;SHT35;42558;52.388;13.390;2023-06-10T01:44:28;15.35;79.77
57709;SHT35;42558;52.388;13.390;2023-06-10T01:46:58;15.34;79.91
57709;SHT35;42558;52.388;13.390;2023-06-10T01:49:28;15.32;80.22
57709;SHT35;42558;52.388;13.390;2023-06-10T01:51:58;15.31;80.02
57709;SHT35;42558;52.388;13.390;2023-06-10T01:54:27;15.32;80.04
57709;SHT35;42558;52.388;13.390;2023-06-10T01:56:57;15.31;80.00
57709;SHT35;42558;52.388;13.390;2023-06-10T01:59:27;15.28;80.06
57709;SHT35;42558;52.388;13.390;2023-06-10T02:01:57;15.25;80.22
57709;SHT35;42558;52.388;13.390;2023-06-10T02:04:27;15.25;80.34
57709;SHT35;42558;52.388;13.390;2023-06-10T02:06:57;15.22;80.30
57709;SHT35;42558;52.388;13.390;2023-06-10T02:09:27;15.20;80.27
57709;SHT35;42558;52.388;13.390;2023-06-10T02:11:57;15.19;80.46
57709;SHT35;42558;52.388;13.390;2023-06-10T02:14:27;15.18;80.49
57709;SHT35;42558;52.388;13.390;2023-06-10T02:16:57;15.17;80.62
57709;SHT35;42558;52.388;13.390;2023-06-10T02:19:27;15.12;80.76
57709;SHT35;42558;52.388;13.390;2023-06-10T02:21:57;15.09;80.76
57709;SHT35;42558;52.388;13.390;2023-06-10T02:24:27;15.05;81.09
57709;SHT35;42558;52.388;13.390;2023-06-10T02:26:57;15.04;81.11
57709;SHT35;42558;52.388;13.390;2023-06-10T02:29:29;15.02;80.90
57709;SHT35;42558;52.388;13.390;2023-06-10T02:31:59;15.01;80.87
57709;SHT35;42558;52.388;13.390;2023-06-10T02:34:29;14.99;80.85
57709;SHT35;42558;52.388;13.390;2023-06-10T02:37:00;14.97;80.97
57709;SHT35;42558;52.388;13.390;2023-06-10T02:39:30;14.94;81.12
57709;SHT35;42558;52.388;13.390;2023-06-10T02:42:00;14.94;81.36
57709;SHT35;42558;52.388;13.390;2023-06-10T02:44:30;14.91;81.40
57709;SHT35;42558;52.388;13.390;2023-06-10T02:47:00;14.89;81.49
57709;SHT35;42558;52.388;13.390;2023-06-10T02:49:30;14.83;81.70
57709;SHT35;42558;52.388;13.390;2023-06-10T02:51:59;14.82;81.80
57709;SHT35;42558;52.388;13.390;2023-06-10T02:54:29;14.80;81.82
57709;SHT35;42558;52.388;13.390;2023-06-10T02:56:58;14.78;81.97
57709;SHT35;42558;52.388;13.390;2023-06-10T02:59:26;14.78;82.15
57709;SHT35;42558;52.388;13.390;2023-06-10T03:01:58;14.77;82.01
57709;SHT35;42558;52.388;13.390;2023-06-10T03:04:31;14.77;81.99
57709;SHT35;42558;52.388;13.390;2023-06-10T03:07:01;14.77;82.25
57709;SHT35;42558;52.388;13.390;2023-06-10T03:09:33;14.76;82.25
57709;SHT35;42558;52.388;13.390;2023-06-10T03:12:03;14.76;82.26
57709;SHT35;42558;52.388;13.390;2023-06-10T03:14:34;14.77;82.17
57709;SHT35;42558;52.388;13.390;2023-06-10T03:17:04;14.77;82.29
57709;SHT35;42558;52.388;13.390;2023-06-10T03:19:35;14.77;82.31
57709;SHT35;42558;52.388;13.390;2023-06-10T03:22:11;14.78;82.24
57709;SHT35;42558;52.388;13.390;2023-06-10T03:24:44;14.81;82.25
57709;SHT35;42558;52.388;13.390;2023-06-10T03:27:16;14.80;82.23
57709;SHT35;42558;52.388;13.390;2023-06-10T03:29:46;14.82;82.24
57709;SHT35;42558;52.388;13.390;2023-06-10T03:32:16;14.82;82.16
57709;SHT35;42558;52.388;13.390;2023-06-10T03:34:46;14.80;82.27
57709;SHT35;42558;52.388;13.390;2023-06-10T03:37:17;14.82;82.55
57709;SHT35;42558;52.388;13.390;2023-06-10T03:39:46;14.83;82.43
57709;SHT35;42558;52.388;13.390;2023-06-10T03:42:16;14.81;82.48
57709;SHT35;42558;52.388;13.390;2023-06-10T03:44:47;14.81;82.65
57709;SHT35;42558;52.388;13.390;2023-06-10T03:47:17;14.86;82.59
57709;SHT35;42558;52.388;13.390;2023-06-10T03:49:47;14.91;82.42
57709;SHT35;42558;52.388;13.390;2023-06-10T03:52:17;14.91;82.40
57709;SHT35;42558;52.388;13.390;2023-06-10T03:54:46;14.90;82.38
57709;SHT35;42558;52.388;13.390;2023-06-10T03:57:14;14.92;82.49
57709;SHT35;42558;52.388;13.390;2023-06-10T03:59:43;14.93;82.41
57709;SHT35;42558;52.388;13.390;2023-06-10T04:02:11;14.96;82.45
57709;SHT35;42558;52.388;13.390;2023-06-10T04:04:39;14.99;82.40
57709;SHT35;42558;52.388;13.390;2023-06-10T04:07:08;15.03;82.32
57709;SHT35;42558;52.388;13.390;2023-06-10T04:09:36;15.07;82.21
57709;SHT35;42558;52.388;13.390;2023-06-10T04:12:05;15.09;81.99
57709;SHT35;42558;52.388;13.390;2023-06-10T04:14:36;15.12;81.88
57709;SHT35;42558;52.388;13.390;2023-06-10T04:17:05;15.16;81.94
57709;SHT35;42558;52.388;13.390;2023-06-10T04:19:38;15.22;81.81
57709;SHT35;42558;52.388;13.390;2023-06-10T04:22:08;15.26;81.62
57709;SHT35;42558;52.388;13.390;2023-06-10T04:24:38;15.31;81.66
57709;SHT35;42558;52.388;13.390;2023-06-10T04:27:08;15.40;81.58
57709;SHT35;42558;52.388;13.390;2023-06-10T04:29:38;15.48;81.18
57709;SHT35;42558;52.388;13.390;2023-06-10T04:32:07;15.55;80.85
57709;SHT35;42558;52.388;13.390;2023-06-10T04:34:37;15.68;80.78
57709;SHT35;42558;52.388;13.390;2023-06-10T04:37:10;15.76;80.33
57709;SHT35;42558;52.388;13.390;2023-06-10T04:39:40;15.81;80.23
57709;SHT35;42558;52.388;13.390;2023-06-10T04:42:11;15.85;79.95
57709;SHT35;42558;52.388;13.390;2023-06-10T04:44:43;15.84;79.61
57709;SHT35;42558;52.388;13.390;2023-06-10T04:47:13;15.80;79.43
57709;SHT35;42558;52.388;13.390;2023-06-10T04:49:43;15.78;79.62
57709;SHT35;42558;52.388;13.390;2023-06-10T04:52:13;15.79;79.44
57709;SHT35;42558;52.388;13.390;2023-06-10T04:54:46;15.71;79.57
57709;SHT35;42558;52.388;13.390;2023-06-10T04:57:18;15.70;79.59
57709;SHT35;42558;52.388;13.390;2023-06-10T04:59:48;15.80;79.63
57709;SHT35;42558;52.388;13.390;2023-06-10T05:02:18;15.93;79.35
57709;SHT35;42558;52.388;13.390;2023-06-10T05:04:48;16.04;79.06
57709;SHT35;42558;52.388;13.390;2023-06-10T05:07:18;16.11;78.85
57709;SHT35;42558;52.388;13.390;2023-06-10T05:09:48;16.05;78.73
57709;SHT35;42558;52.388;13.390;2023-06-10T05:12:18;16.17;78.44
57709;SHT35;42558;52.388;13.390;2023-06-10T05:14:48;16.17;78.09
57709;SHT35;42558;52.388;13.390;2023-06-10T05:17:18;16.18;78.17
57709;SHT35;42558;52.388;13.390;2023-06-10T05:19:48;16.17;78.18
57709;SHT35;42558;52.388;13.390;2023-06-10T05:22:18;16.41;78.02
57709;SHT35;42558;52.388;13.390;2023-06-10T05:24:48;16.72;77.22
57709;SHT35;42558;52.388;13.390;2023-06-10T05:27:17;16.87;76.47
57709;SHT35;42558;52.388;13.390;2023-06-10T05:29:47;16.87;76.46
57709;SHT35;42558;52.388;13.390;2023-06-10T05:32:18;16.85;76.21
57709;SHT35;42558;52.388;13.390;2023-06-10T05:34:48;16.74;76.26
57709;SHT35;42558;52.388;13.390;2023-06-10T05:37:18;16.73;76.69
57709;SHT35;42558;52.388;13.390;2023-06-10T05:39:47;16.86;76.45
57709;SHT35;42558;52.388;13.390;2023-06-10T05:42:17;16.92;76.08
57709;SHT35;42558;52.388;13.390;2023-06-10T05:44:48;17.01;75.83
57709;SHT35;42558;52.388;13.390;2023-06-10T05:47:18;17.09;76.06
57709;SHT35;42558;52.388;13.390;2023-06-10T05:49:50;17.30;75.44
57709;SHT35;42558;52.388;13.390;2023-06-10T05:52:21;17.37;74.82
57709;SHT35;42558;52.388;13.390;2023-06-10T05:54:50;17.57;75.10
57709;SHT35;42558;52.388;13.390;2023-06-10T05:57:20;17.70;74.24
57709;SHT35;42558;52.388;13.390;2023-06-10T05:59:51;17.81;73.63
57709;SHT35;42558;52.388;13.390;2023-06-10T06:02:19;17.92;73.17
57709;SHT35;42558;52.388;13.390;2023-06-10T06:04:48;17.99;72.71
57709;SHT35;42558;52.388;13.390;2023-06-10T06:07:16;18.00;72.41
57709;SHT35;42558;52.388;13.390;2023-06-10T06:09:45;17.90;72.75
57709;SHT35;42558;52.388;13.390;2023-06-10T06:12:13;17.94;72.78
57709;SHT35;42558;52.388;13.390;2023-06-10T06:14:42;18.03;72.62
57709;SHT35;42558;52.388;13.390;2023-06-10T06:17:10;18.25;72.46
57709;SHT35;42558;52.388;13.390;2023-06-10T06:19:38;18.68;71.40
57709;SHT35;42558;52.388;13.390;2023-06-10T06:22:07;19.04;70.27
57709;SHT35;42558;52.388;13.390;2023-06-10T06:24:35;19.02;69.78
57709;SHT35;42558;52.388;13.390;2023-06-10T06:27:04;18.98;69.85
57709;SHT35;42558;52.388;13.390;2023-06-10T06:29:32;18.87;69.56
57709;SHT35;42558;52.388;13.390;2023-06-10T06:32:04;18.85;70.27
57709;SHT35;42558;52.388;13.390;2023-06-10T06:34:32;19.04;70.06
57709;SHT35;42558;52.388;13.390;2023-06-10T06:37:00;19.37;69.10
57709;SHT35;42558;52.388;13.390;2023-06-10T06:39:29;19.81;68.30
57709;SHT35;42558;52.388;13.390;2023-06-10T06:41:57;20.15;67.16
57709;SHT35;42558;52.388;13.390;2023-06-10T06:44:26;20.18;66.42
57709;SHT35;42558;52.388;13.390;2023-06-10T06:46:54;20.14;66.83
57709;SHT35;42558;52.388;13.390;2023-06-10T06:49:22;20.26;66.92
57709;SHT35;42558;52.388;13.390;2023-06-10T06:51:51;20.39;66.29
57709;SHT35;42558;52.388;13.390;2023-06-10T06:54:19;20.81;66.60
57709;SHT35;42558;52.388;13.390;2023-06-10T06:56:48;21.12;64.67
57709;SHT35;42558;52.388;13.390;2023-06-10T06:59:16;21.12;63.82
57709;SHT35;42558;52.388;13.390;2023-06-10T07:01:48;21.00;63.50
57709;SHT35;42558;52.388;13.390;2023-06-10T07:04:18;20.89;64.13
57709;SHT35;42558;52.388;13.390;2023-06-10T07:06:49;21.21;63.71
57709;SHT35;42558;52.388;13.390;2023-06-10T07:09:18;21.73;62.27
57709;SHT35;42558;52.388;13.390;2023-06-10T07:11:48;22.36;60.74
57709;SHT35;42558;52.388;13.390;2023-06-10T07:14:18;22.95;59.39
57709;SHT35;42558;52.388;13.390;2023-06-10T07:16:48;22.63;58.23
57709;SHT35;42558;52.388;13.390;2023-06-10T07:19:19;22.58;59.71
57709;SHT35;42558;52.388;13.390;2023-06-10T07:21:48;22.98;59.18
57709;SHT35;42558;52.388;13.390;2023-06-10T07:24:18;23.30;57.31
57709;SHT35;42558;52.388;13.390;2023-06-10T07:26:50;23.57;56.82
57709;SHT35;42558;52.388;13.390;2023-06-10T07:29:20;23.69;55.85
57709;SHT35;42558;52.388;13.390;2023-06-10T07:31:50;23.95;55.70
57709;SHT35;42558;52.388;13.390;2023-06-10T07:34:20;24.19;54.72
57709;SHT35;42558;52.388;13.390;2023-06-10T07:36:50;24.17;54.72
57709;SHT35;42558;52.388;13.390;2023-06-10T07:39:19;24.32;54.27
57709;SHT35;42558;52.388;13.390;2023-06-10T07:41:50;24.15;53.91
57709;SHT35;42558;52.388;13.390;2023-06-10T07:44:23;24.19;54.11
57709;SHT35;42558;52.388;13.390;2023-06-10T07:46:53;24.33;54.15
57709;SHT35;42558;52.388;13.390;2023-06-10T07:49:23;24.88;53.88
57709;SHT35;42558;52.388;13.390;2023-06-10T07:51:54;25.12;52.81
57709;SHT35;42558;52.388;13.390;2023-06-10T07:54:27;25.47;51.07
57709;SHT35;42558;52.388;13.390;2023-06-10T07:56:58;25.25;53.87
57709;SHT35;42558;52.388;13.390;2023-06-10T07:59:28;25.10;55.59
57709;SHT35;42558;52.388;13.390;2023-06-10T08:01:58;24.84;55.74
57709;SHT35;42558;52.388;13.390;2023-06-10T08:04:28;24.46;56.16
57709;SHT35;42558;52.388;13.390;2023-06-10T08:07:00;24.44;57.29
57709;SHT35;42558;52.388;13.390;2023-06-10T08:09:31;25.56;55.63
57709;SHT35;42558;52.388;13.390;2023-06-10T08:12:01;25.85;53.98
57709;SHT35;42558;52.388;13.390;2023-06-10T08:14:30;24.93;55.02
57709;SHT35;42558;52.388;13.390;2023-06-10T08:16:59;24.81;55.53
57709;SHT35;42558;52.388;13.390;2023-06-10T08:19:27;24.78;55.67
57709;SHT35;42558;52.388;13.390;2023-06-10T08:21:56;25.31;54.78
57709;SHT35;42558;52.388;13.390;2023-06-10T08:24:24;24.98;55.18
57709;SHT35;42558;52.388;13.390;2023-06-10T08:26:53;25.01;54.73
57709;SHT35;42558;52.388;13.390;2023-06-10T08:29:21;25.30;54.66
57709;SHT35;42558;52.388;13.390;2023-06-10T08:31:50;25.90;53.96
57709;SHT35;42558;52.388;13.390;2023-06-10T08:34:18;26.21;52.91
57709;SHT35;42558;52.388;13.390;2023-06-10T08:36:46;26.13;52.02
57709;SHT35;42558;52.388;13.390;2023-06-10T08:39:15;25.51;52.56
57709;SHT35;42558;52.388;13.390;2023-06-10T08:41:43;25.42;53.82
57709;SHT35;42558;52.388;13.390;2023-06-10T08:44:29;25.48;53.42
57709;SHT35;42558;52.388;13.390;2023-06-10T08:47:01;25.73;53.78
57709;SHT35;42558;52.388;13.390;2023-06-10T08:49:46;25.76;51.97
57709;SHT35;42558;52.388;13.390;2023-06-10T08:52:15;25.89;52.75
57709;SHT35;42558;52.388;13.390;2023-06-10T08:54:52;25.39;52.78
57709;SHT35;42558;52.388;13.390;2023-06-10T08:57:28;25.89;53.12
57709;SHT35;42558;52.388;13.390;2023-06-10T08:59:59;26.65;51.09
57709;SHT35;42558;52.388;13.390;2023-06-10T09:02:27;26.76;50.64
57709;SHT35;42558;52.388;13.390;2023-06-10T09:04:57;26.79;51.25
57709;SHT35;42558;52.388;13.390;2023-06-10T09:07:29;27.12;50.87
57709;SHT35;42558;52.388;13.390;2023-06-10T09:10:00;27.12;50.33
57709;SHT35;42558;52.388;13.390;2023-06-10T09:12:33;27.31;49.69
57709;SHT35;42558;52.388;13.390;2023-06-10T09:15:04;27.08;50.37
57709;SHT35;42558;52.388;13.390;2023-06-10T09:17:34;27.09;50.48
57709;SHT35;42558;52.388;13.390;2023-06-10T09:20:07;27.29;49.56
57709;SHT35;42558;52.388;13.390;2023-06-10T09:22:37;26.95;50.05
57709;SHT35;42558;52.388;13.390;2023-06-10T09:25:09;26.73;50.31
57709;SHT35;42558;52.388;13.390;2023-06-10T09:27:46;26.86;50.96
57709;SHT35;42558;52.388;13.390;2023-06-10T09:30:32;27.19;50.95
57709;SHT35;42558;52.388;13.390;2023-06-10T09:33:09;27.45;49.45
57709;SHT35;42558;52.388;13.390;2023-06-10T09:35:48;27.80;48.79
57709;SHT35;42558;52.388;13.390;2023-06-10T09:38:20;27.44;48.69
57709;SHT35;42558;52.388;13.390;2023-06-10T09:40:53;27.68;50.06
57709;SHT35;42558;52.388;13.390;2023-06-10T09:43:21;28.42;47.18
57709;SHT35;42558;52.388;13.390;2023-06-10T09:45:52;27.76;47.40
57709;SHT35;42558;52.388;13.390;2023-06-10T09:48:25;27.02;48.91
57709;SHT35;42558;52.388;13.390;2023-06-10T09:50:55;27.25;50.03
57709;SHT35;42558;52.388;13.390;2023-06-10T09:53:25;27.87;47.95
57709;SHT35;42558;52.388;13.390;2023-06-10T09:55:56;28.18;47.00
57709;SHT35;42558;52.388;13.390;2023-06-10T09:58:37;28.70;47.10
57709;SHT35;42558;52.388;13.390;2023-06-10T10:01:09;28.42;45.96
57709;SHT35;42558;52.388;13.390;2023-06-10T10:03:48;28.38;47.06
57709;SHT35;42558;52.388;13.390;2023-06-10T10:06:19;28.74;46.50
57709;SHT35;42558;52.388;13.390;2023-06-10T10:08:50;28.18;46.57
57709;SHT35;42558;52.388;13.390;2023-06-10T10:11:20;27.68;47.01
57709;SHT35;42558;52.388;13.390;2023-06-10T10:13:51;27.54;47.05
57709;SHT35;42558;52.388;13.390;2023-06-10T10:16:27;27.85;46.35
57709;SHT35;42558;52.388;13.390;2023-06-10T10:19:12;27.93;46.16
57709;SHT35;42558;52.388;13.390;2023-06-10T10:21:56;28.13;45.92
57709;SHT35;42558;52.388;13.390;2023-06-10T10:24:36;27.82;45.60
57709;SHT35;42558;52.388;13.390;2023-06-10T10:27:17;28.01;47.36
57709;SHT35;42558;52.388;13.390;2023-06-10T10:29:56;28.49;47.11
57709;SHT35;42558;52.388;13.390;2023-06-10T10:32:43;28.45;46.00
57709;SHT35;42558;52.388;13.390;2023-06-10T10:35:32;28.46;46.89
57709;SHT35;42558;52.388;13.390;2023-06-10T10:38:03;27.91;46.76
57709;SHT35;42558;52.388;13.390;2023-06-10T10:40:35;27.46;46.88
57709;SHT35;42558;52.388;13.390;2023-06-10T10:43:07;27.09;48.03
57709;SHT35;42558;52.388;13.390;2023-06-10T10:45:38;27.25;47.27
57709;SHT35;42558;52.388;13.390;2023-06-10T10:48:08;27.14;47.37
57709;SHT35;42558;52.388;13.390;2023-06-10T10:50:41;27.38;47.44
57709;SHT35;42558;52.388;13.390;2023-06-10T10:53:13;27.40;46.28
57709;SHT35;42558;52.388;13.390;2023-06-10T10:55:59;27.97;45.14
57709;SHT35;42558;52.388;13.390;2023-06-10T10:58:43;28.14;44.83
57709;SHT35;42558;52.388;13.390;2023-06-10T11:01:39;27.87;45.05
57709;SHT35;42558;52.388;13.390;2023-06-10T11:04:12;27.39;45.84
57709;SHT35;42558;52.388;13.390;2023-06-10T11:06:51;27.25;45.97
57709;SHT35;42558;52.388;13.390;2023-06-10T11:09:35;27.40;45.11
57709;SHT35;42558;52.388;13.390;2023-06-10T11:12:05;27.60;45.07
57709;SHT35;42558;52.388;13.390;2023-06-10T11:14:40;27.50;44.62
57709;SHT35;42558;52.388;13.390;2023-06-10T11:17:27;27.42;45.00
57709;SHT35;42558;52.388;13.390;2023-06-10T11:19:58;26.97;44.97
57709;SHT35;42558;52.388;13.390;2023-06-10T11:22:29;26.67;45.85
57709;SHT35;42558;52.388;13.390;2023-06-10T11:24:59;26.88;45.30
57709;SHT35;42558;52.388;13.390;2023-06-10T11:27:29;26.96;45.65
57709;SHT35;42558;52.388;13.390;2023-06-10T11:30:19;26.95;45.43
57709;SHT35;42558;52.388;13.390;2023-06-10T11:32:50;27.26;45.37
57709;SHT35;42558;52.388;13.390;2023-06-10T11:35:23;27.85;44.42
57709;SHT35;42558;52.388;13.390;2023-06-10T11:37:53;27.93;42.70
57709;SHT35;42558;52.388;13.390;2023-06-10T11:40:23;28.02;42.93
57709;SHT35;42558;52.388;13.390;2023-06-10T11:42:53;27.93;43.12
57709;SHT35;42558;52.388;13.390;2023-06-10T11:45:24;27.99;42.87
57709;SHT35;42558;52.388;13.390;2023-06-10T11:47:58;28.17;43.08
57709;SHT35;42558;52.388;13.390;2023-06-10T11:50:33;28.18;42.61
57709;SHT35;42558;52.388;13.390;2023-06-10T11:53:03;28.14;43.25
57709;SHT35;42558;52.388;13.390;2023-06-10T11:55:43;28.15;42.10
57709;SHT35;42558;52.388;13.390;2023-06-10T11:58:21;28.01;43.06
57709;SHT35;42558;52.388;13.390;2023-06-10T12:00:52;28.23;42.24
57709;SHT35;42558;52.388;13.390;2023-06-10T12:03:35;28.01;42.34
57709;SHT35;42558;52.388;13.390;2023-06-10T12:06:07;28.19;42.46
57709;SHT35;42558;52.388;13.390;2023-06-10T12:08:41;28.23;42.69
57709;SHT35;42558;52.388;13.390;2023-06-10T12:11:12;28.10;42.11
57709;SHT35;42558;52.388;13.390;2023-06-10T12:13:46;27.84;41.89
57709;SHT35;42558;52.388;13.390;2023-06-10T12:16:19;27.80;42.48
57709;SHT35;42558;52.388;13.390;2023-06-10T12:18:49;27.92;42.83
57709;SHT35;42558;52.388;13.390;2023-06-10T12:21:19;27.63;42.56
57709;SHT35;42558;52.388;13.390;2023-06-10T12:23:59;27.52;42.85
57709;SHT35;42558;52.388;13.390;2023-06-10T12:26:39;27.59;42.39
57709;SHT35;42558;52.388;13.390;2023-06-10T12:29:17;27.72;42.83
57709;SHT35;42558;52.388;13.390;2023-06-10T12:31:52;28.00;42.14
57709;SHT35;42558;52.388;13.390;2023-06-10T12:34:36;28.07;42.77
57709;SHT35;42558;52.388;13.390;2023-06-10T12:37:12;28.29;42.85
57709;SHT35;42558;52.388;13.390;2023-06-10T12:39:43;28.23;42.86
57709;SHT35;42558;52.388;13.390;2023-06-10T12:42:25;28.27;42.94
57709;SHT35;42558;52.388;13.390;2023-06-10T12:44:55;28.13;43.31
57709;SHT35;42558;52.388;13.390;2023-06-10T12:47:30;28.03;43.74
57709;SHT35;42558;52.388;13.390;2023-06-10T12:50:04;28.14;43.61
57709;SHT35;42558;52.388;13.390;2023-06-10T12:52:35;28.34;43.97
57709;SHT35;42558;52.388;13.390;2023-06-10T12:55:05;28.32;44.17
57709;SHT35;42558;52.388;13.390;2023-06-10T12:57:33;28.28;43.27
57709;SHT35;42558;52.388;13.390;2023-06-10T13:00:02;27.84;44.42
57709;SHT35;42558;52.388;13.390;2023-06-10T13:02:33;28.08;44.09
57709;SHT35;42558;52.388;13.390;2023-06-10T13:05:02;27.98;43.78
57709;SHT35;42558;52.388;13.390;2023-06-10T13:07:30;28.19;43.91
57709;SHT35;42558;52.388;13.390;2023-06-10T13:09:58;28.24;44.01
57709;SHT35;42558;52.388;13.390;2023-06-10T13:12:27;28.13;44.53
57709;SHT35;42558;52.388;13.390;2023-06-10T13:15:16;28.10;42.96
57709;SHT35;42558;52.388;13.390;2023-06-10T13:17:47;27.79;42.81
57709;SHT35;42558;52.388;13.390;2023-06-10T13:20:20;27.82;43.81
57709;SHT35;42558;52.388;13.390;2023-06-10T13:22:51;28.17;43.12
57709;SHT35;42558;52.388;13.390;2023-06-10T13:25:21;28.36;43.04
57709;SHT35;42558;52.388;13.390;2023-06-10T13:27:51;28.15;42.93
57709;SHT35;42558;52.388;13.390;2023-06-10T13:30:20;27.80;42.61
57709;SHT35;42558;52.388;13.390;2023-06-10T13:32:50;27.55;41.51
57709;SHT35;42558;52.388;13.390;2023-06-10T13:35:20;27.98;41.86
57709;SHT35;42558;52.388;13.390;2023-06-10T13:37:50;28.31;42.74
57709;SHT35;42558;52.388;13.390;2023-06-10T13:40:20;28.50;42.57
57709;SHT35;42558;52.388;13.390;2023-06-10T13:42:51;28.28;42.51
57709;SHT35;42558;52.388;13.390;2023-06-10T13:45:23;28.36;41.24
57709;SHT35;42558;52.388;13.390;2023-06-10T13:47:54;28.63;38.38
57709;SHT35;42558;52.388;13.390;2023-06-10T13:50:24;28.52;35.85
57709;SHT35;42558;52.388;13.390;2023-06-10T13:52:54;28.45;36.33
57709;SHT35;42558;52.388;13.390;2023-06-10T13:55:24;28.39;37.43
57709;SHT35;42558;52.388;13.390;2023-06-10T13:57:54;28.77;38.42
57709;SHT35;42558;52.388;13.390;2023-06-10T14:00:24;29.10;37.35
57709;SHT35;42558;52.388;13.390;2023-06-10T14:02:54;28.74;37.18
57709;SHT35;42558;52.388;13.390;2023-06-10T14:05:25;28.94;39.76
57709;SHT35;42558;52.388;13.390;2023-06-10T14:07:58;28.70;39.88
57709;SHT35;42558;52.388;13.390;2023-06-10T14:10:28;28.49;40.15
57709;SHT35;42558;52.388;13.390;2023-06-10T14:12:58;28.14;40.58
57709;SHT35;42558;52.388;13.390;2023-06-10T14:15:29;28.02;41.13
57709;SHT35;42558;52.388;13.390;2023-06-10T14:18:00;28.08;41.24
57709;SHT35;42558;52.388;13.390;2023-06-10T14:20:30;28.24;40.46
57709;SHT35;42558;52.388;13.390;2023-06-10T14:23:00;28.22;40.06
57709;SHT35;42558;52.388;13.390;2023-06-10T14:25:30;27.88;39.65
57709;SHT35;42558;52.388;13.390;2023-06-10T14:28:00;27.98;39.74
57709;SHT35;42558;52.388;13.390;2023-06-10T14:30:30;28.51;39.90
57709;SHT35;42558;52.388;13.390;2023-06-10T14:33:00;28.90;38.22
57709;SHT35;42558;52.388;13.390;2023-06-10T14:35:30;29.15;38.43
57709;SHT35;42558;52.388;13.390;2023-06-10T14:38:00;29.00;37.33
57709;SHT35;42558;52.388;13.390;2023-06-10T14:40:29;28.61;38.08
57709;SHT35;42558;52.388;13.390;2023-06-10T14:43:01;28.32;40.96
57709;SHT35;42558;52.388;13.390;2023-06-10T14:45:32;28.00;40.75
57709;SHT35;42558;52.388;13.390;2023-06-10T14:48:04;28.31;41.47
57709;SHT35;42558;52.388;13.390;2023-06-10T14:50:33;28.48;40.07
57709;SHT35;42558;52.388;13.390;2023-06-10T14:53:05;28.59;40.98
57709;SHT35;42558;52.388;13.390;2023-06-10T14:55:35;28.91;39.26
57709;SHT35;42558;52.388;13.390;2023-06-10T14:58:05;29.26;39.63
57709;SHT35;42558;52.388;13.390;2023-06-10T15:00:35;29.35;38.76
57709;SHT35;42558;52.388;13.390;2023-06-10T15:03:05;29.46;39.67
57709;SHT35;42558;52.388;13.390;2023-06-10T15:05:35;29.50;39.29
57709;SHT35;42558;52.388;13.390;2023-06-10T15:08:06;29.56;38.75
57709;SHT35;42558;52.388;13.390;2023-06-10T15:10:37;29.27;39.13
57709;SHT35;42558;52.388;13.390;2023-06-10T15:13:07;28.95;38.89
57709;SHT35;42558;52.388;13.390;2023-06-10T15:15:37;28.99;39.58
57709;SHT35;42558;52.388;13.390;2023-06-10T15:18:07;29.26;38.96
57709;SHT35;42558;52.388;13.390;2023-06-10T15:20:37;29.66;38.70
57709;SHT35;42558;52.388;13.390;2023-06-10T15:23:07;29.79;37.74
57709;SHT35;42558;52.388;13.390;2023-06-10T15:25:37;29.70;37.79
57709;SHT35;42558;52.388;13.390;2023-06-10T15:28:10;29.64;38.07
57709;SHT35;42558;52.388;13.390;2023-06-10T15:30:40;29.36;36.22
57709;SHT35;42558;52.388;13.390;2023-06-10T15:33:10;29.14;37.32
57709;SHT35;42558;52.388;13.390;2023-06-10T15:35:40;29.61;36.22
57709;SHT35;42558;52.388;13.390;2023-06-10T15:38:10;29.43;35.37
57709;SHT35;42558;52.388;13.390;2023-06-10T15:40:43;29.16;36.15
57709;SHT35;42558;52.388;13.390;2023-06-10T15:43:11;29.17;35.51
57709;SHT35;42558;52.388;13.390;2023-06-10T15:45:42;29.20;35.38
57709;SHT35;42558;52.388;13.390;2023-06-10T15:48:12;29.65;35.75